sensor_id;sensor_type;location;lat;lon;timestamp;temperature;humidity
26262;DHT22;13988;52.446;13.280;2022-12-07T00:01:10;2.30;99.90
26262;DHT22;13988;52.446;13.280;2022-12-07T00:03:36;2.20;99.90
26262;DHT22;13988;52.446;13.280;2022-12-07T00:06:04;2.10;99.90
26262;DHT22;13988;52.446;13.280;2022-12-07T00:08:31;2.20;99.90
26262;DHT22;13988;52.446;13.280;2022-12-07T00:11:08;2.10;99.90
26262;DHT22;13988;52.446;13.280;2022-12-07T00:13:35;2.10;99.90
26262;DHT22;13988;52.446;13.280;2022-12-07T00:16:12;2.20;99.90
26262;DHT22;13988;52.446;13.280;2022-12-07T00:18:39;2.10;99.90
26262;DHT22;13988;52.446;13.280;2022-12-07T00:21:14;2.10;99.90
26262;DHT22;13988;52.446;13.280;2022-12-07T00:23:42;2.10;99.90
26262;DHT22;13988;52.446;13.280;2022-12-07T00:26:17;2.00;99.90
26262;DHT22;13988;52.446;13.280;2022-12-07T00:28:54;2.00;99.90
26262;DHT22;13988;52.446;13.280;2022-12-07T00:31:23;1.90;99.90
26262;DHT22;13988;52.446;13.280;2022-12-07T00:33:49;1.70;99.90
26262;DHT22;13988;52.446;13.280;2022-12-07T00:36:17;1.70;99.90
26262;DHT22;13988;52.446;13.280;2022-12-07T00:38:43;1.60;99.90
26262;DHT22;13988;52.446;13.280;2022-12-07T00:41:14;1.60;99.90
26262;DHT22;13988;52.446;13.280;2022-12-07T00:43:41;1.60;99.90
26262;DHT22;13988;52.446;13.280;2022-12-07T00:46:07;1.50;99.90
26262;DHT22;13988;52.446;13.280;2022-12-07T00:48:33;1.50;99.90
26262;DHT22;13988;52.446;13.280;2022-12-07T00:50:59;1.60;99.90
26262;DHT22;13988;52.446;13.280;2022-12-07T00:53:26;1.50;99.90
26262;DHT22;13988;52.446;13.280;2022-12-07T00:55:52;1.60;99.90
26262;DHT22;13988;52.446;13.280;2022-12-07T00:58:18;1.70;99.90
26262;DHT22;13988;52.446;13.280;2022-12-07T01:00:44;1.70;99.90
26262;DHT22;13988;52.446;13.280;2022-12-07T01:03:12;1.60;99.90
26262;DHT22;13988;52.446;13.280;2022-12-07T01:05:38;1.60;99.90
26262;DHT22;13988;52.446;13.280;2022-12-07T01:08:05;1.60;99.90
26262;DHT22;13988;52.446;13.280;2022-12-07T01:10:31;1.60;99.90
26262;DHT22;13988;52.446;13.280;2022-12-07T01:12:57;1.60;99.90
26262;DHT22;13988;52.446;13.280;2022-12-07T01:15:23;1.60;99.90
26262;DHT22;13988;52.446;13.280;2022-12-07T01:17:49;1.50;99.90
26262;DHT22;13988;52.446;13.280;2022-12-07T01:20:15;1.60;99.90
26262;DHT22;13988;52.446;13.280;2022-12-07T01:22:42;1.60;99.90
26262;DHT22;13988;52.446;13.280;2022-12-07T01:25:08;1.60;99.90
26262;DHT22;13988;52.446;13.280;2022-12-07T01:27:35;1.60;99.90
26262;DHT22;13988;52.446;13.280;2022-12-07T01:30:02;1.60;99.90
26262;DHT22;13988;52.446;13.280;2022-12-07T01:32:28;1.60;99.90
26262;DHT22;13988;52.446;13.280;2022-12-07T01:34:54;1.60;99.90
26262;DHT22;13988;52.446;13.280;2022-12-07T01:37:20;1.60;99.90
26262;DHT22;13988;52.446;13.280;2022-12-07T01:39:49;1.60;99.90
26262;DHT22;13988;52.446;13.280;2022-12-07T01:42:15;1.50;99.90
26262;DHT22;13988;52.446;13.280;2022-12-07T01:47:51;1.50;99.90
26262;DHT22;13988;52.446;13.280;2022-12-07T01:50:19;1.50;99.90
26262;DHT22;13988;52.446;13.280;2022-12-07T01:52:48;1.50;99.90
26262;DHT22;13988;52.446;13.280;2022-12-07T01:55:15;1.50;99.90
26262;DHT22;13988;52.446;13.280;2022-12-07T01:57:45;1.60;99.90
26262;DHT22;13988;52.446;13.280;2022-12-07T02:00:13;1.60;99.90
26262;DHT22;13988;52.446;13.280;2022-12-07T02:02:55;1.50;99.90
26262;DHT22;13988;52.446;13.280;2022-12-07T02:05:24;1.40;99.90
26262;DHT22;13988;52.446;13.280;2022-12-07T02:07:51;1.50;99.90
26262;DHT22;13988;52.446;13.280;2022-12-07T02:10:20;1.40;99.90
26262;DHT22;13988;52.446;13.280;2022-12-07T02:12:49;1.40;99.90
26262;DHT22;13988;52.446;13.280;2022-12-07T02:15:16;1.30;99.90
26262;DHT22;13988;52.446;13.280;2022-12-07T02:18:16;1.40;99.90
26262;DHT22;13988;52.446;13.280;2022-12-07T02:24:28;1.30;99.90
26262;DHT22;13988;52.446;13.280;2022-12-07T02:32:30;1.30;99.90
26262;DHT22;13988;52.446;13.280;2022-12-07T02:35:07;1.20;99.90
26262;DHT22;13988;52.446;13.280;2022-12-07T02:40:51;1.20;99.90
26262;DHT22;13988;52.446;13.280;2022-12-07T02:43:31;1.20;99.90
26262;DHT22;13988;52.446;13.280;2022-12-07T02:46:10;1.20;99.90
26262;DHT22;13988;52.446;13.280;2022-12-07T02:48:38;1.20;99.90
26262;DHT22;13988;52.446;13.280;2022-12-07T02:51:05;1.20;99.90
26262;DHT22;13988;52.446;13.280;2022-12-07T02:53:35;1.20;99.90
26262;DHT22;13988;52.446;13.280;2022-12-07T03:15:41;1.30;99.90
26262;DHT22;13988;52.446;13.280;2022-12-07T03:18:11;1.30;99.90
26262;DHT22;13988;52.446;13.280;2022-12-07T03:20:39;1.30;99.90
26262;DHT22;13988;52.446;13.280;2022-12-07T03:23:08;1.30;99.90
26262;DHT22;13988;52.446;13.280;2022-12-07T03:25:40;1.30;99.90
26262;DHT22;13988;52.446;13.280;2022-12-07T03:28:07;1.40;99.90
26262;DHT22;13988;52.446;13.280;2022-12-07T03:30:44;1.30;99.90
26262;DHT22;13988;52.446;13.280;2022-12-07T03:33:15;1.40;99.90
26262;DHT22;13988;52.446;13.280;2022-12-07T03:36:27;1.30;99.90
26262;DHT22;13988;52.446;13.280;2022-12-07T03:39:12;1.30;99.90
26262;DHT22;13988;52.446;13.280;2022-12-07T03:41:30;1.30;99.90
26262;DHT22;13988;52.446;13.280;2022-12-07T03:43:57;1.30;99.90
26262;DHT22;13988;52.446;13.280;2022-12-07T03:47:21;1.30;99.90
26262;DHT22;13988;52.446;13.280;2022-12-07T03:55:22;1.20;99.90
26262;DHT22;13988;52.446;13.280;2022-12-07T03:57:28;1.20;99.90
26262;DHT22;13988;52.446;13.280;2022-12-07T03:59:55;1.20;99.90
26262;DHT22;13988;52.446;13.280;2022-12-07T04:02:23;1.30;99.90
26262;DHT22;13988;52.446;13.280;2022-12-07T04:04:50;1.20;99.90
26262;DHT22;13988;52.446;13.280;2022-12-07T04:07:15;1.10;99.90
26262;DHT22;13988;52.446;13.280;2022-12-07T04:09:41;1.10;99.90
26262;DHT22;13988;52.446;13.280;2022-12-07T04:12:07;1.10;99.90
26262;DHT22;13988;52.446;13.280;2022-12-07T04:14:32;1.10;99.90
26262;DHT22;13988;52.446;13.280;2022-12-07T04:16:58;1.10;99.90
26262;DHT22;13988;52.446;13.280;2022-12-07T04:19:29;1.00;99.90
26262;DHT22;13988;52.446;13.280;2022-12-07T04:21:56;1.00;99.90
26262;DHT22;13988;52.446;13.280;2022-12-07T04:24:22;1.00;99.90
26262;DHT22;13988;52.446;13.280;2022-12-07T04:26:48;1.00;99.90
26262;DHT22;13988;52.446;13.280;2022-12-07T04:29:15;1.00;99.90
26262;DHT22;13988;52.446;13.280;2022-12-07T04:31:41;1.00;99.90
26262;DHT22;13988;52.446;13.280;2022-12-07T04:34:07;1.10;99.90
26262;DHT22;13988;52.446;13.280;2022-12-07T04:36:33;1.10;99.90
26262;DHT22;13988;52.446;13.280;2022-12-07T04:38:59;1.20;99.90
26262;DHT22;13988;52.446;13.280;2022-12-07T04:41:25;1.20;99.90
26262;DHT22;13988;52.446;13.280;2022-12-07T04:43:55;1.10;99.90
26262;DHT22;13988;52.446;13.280;2022-12-07T04:46:22;1.20;99.90
26262;DHT22;13988;52.446;13.280;2022-12-07T04:48:47;1.20;99.90
26262;DHT22;13988;52.446;13.280;2022-12-07T04:51:16;1.30;99.90
26262;DHT22;13988;52.446;13.280;2022-12-07T04:53:43;1.30;99.90
26262;DHT22;13988;52.446;13.280;2022-12-07T04:56:09;1.30;99.90
26262;DHT22;13988;52.446;13.280;2022-12-07T04:58:34;1.30;99.90
26262;DHT22;13988;52.446;13.280;2022-12-07T05:01:00;1.40;99.90
26262;DHT22;13988;52.446;13.280;2022-12-07T05:03:26;1.40;99.90
26262;DHT22;13988;52.446;13.280;2022-12-07T05:05:51;1.40;99.90
26262;DHT22;13988;52.446;13.280;2022-12-07T05:08:17;1.40;99.90
26262;DHT22;13988;52.446;13.280;2022-12-07T05:10:42;1.50;99.90
26262;DHT22;13988;52.446;13.280;2022-12-07T05:13:08;1.50;99.90
26262;DHT22;13988;52.446;13.280;2022-12-07T05:15:33;1.60;99.90
26262;DHT22;13988;52.446;13.280;2022-12-07T05:17:59;1.70;99.90
26262;DHT22;13988;52.446;13.280;2022-12-07T05:20:25;1.70;99.90
26262;DHT22;13988;52.446;13.280;2022-12-07T05:22:50;1.70;99.90
26262;DHT22;13988;52.446;13.280;2022-12-07T05:25:16;1.80;99.90
26262;DHT22;13988;52.446;13.280;2022-12-07T05:27:42;1.80;99.90
26262;DHT22;13988;52.446;13.280;2022-12-07T05:30:08;1.90;99.90
26262;DHT22;13988;52.446;13.280;2022-12-07T05:32:33;1.90;99.90
26262;DHT22;13988;52.446;13.280;2022-12-07T05:34:59;1.90;99.90
26262;DHT22;13988;52.446;13.280;2022-12-07T05:37:24;1.90;99.90
26262;DHT22;13988;52.446;13.280;2022-12-07T05:39:50;2.00;99.90
26262;DHT22;13988;52.446;13.280;2022-12-07T05:42:16;2.00;99.90
26262;DHT22;13988;52.446;13.280;2022-12-07T05:44:44;2.10;99.90
26262;DHT22;13988;52.446;13.280;2022-12-07T05:47:13;2.10;99.90
26262;DHT22;13988;52.446;13.280;2022-12-07T05:49:39;2.10;99.90
26262;DHT22;13988;52.446;13.280;2022-12-07T05:52:05;2.10;99.90
26262;DHT22;13988;52.446;13.280;2022-12-07T05:54:31;2.20;99.90
26262;DHT22;13988;52.446;13.280;2022-12-07T05:56:57;2.20;99.90
26262;DHT22;13988;52.446;13.280;2022-12-07T05:59:23;2.20;99.90
26262;DHT22;13988;52.446;13.280;2022-12-07T06:02:04;2.30;99.90
26262;DHT22;13988;52.446;13.280;2022-12-07T06:04:33;2.30;99.90
26262;DHT22;13988;52.446;13.280;2022-12-07T06:06:59;2.30;99.90
26262;DHT22;13988;52.446;13.280;2022-12-07T06:09:26;2.30;99.90
26262;DHT22;13988;52.446;13.280;2022-12-07T06:11:53;2.40;99.90
26262;DHT22;13988;52.446;13.280;2022-12-07T06:14:38;2.40;99.90
26262;DHT22;13988;52.446;13.280;2022-12-07T06:17:04;2.40;99.90
26262;DHT22;13988;52.446;13.280;2022-12-07T06:19:30;2.40;99.90
26262;DHT22;13988;52.446;13.280;2022-12-07T06:21:56;2.40;99.90
26262;DHT22;13988;52.446;13.280;2022-12-07T06:24:22;2.40;99.90
26262;DHT22;13988;52.446;13.280;2022-12-07T06:26:48;2.40;99.90
26262;DHT22;13988;52.446;13.280;2022-12-07T06:29:14;2.40;99.90
26262;DHT22;13988;52.446;13.280;2022-12-07T06:31:40;2.40;99.90
26262;DHT22;13988;52.446;13.280;2022-12-07T06:34:10;2.50;99.90
26262;DHT22;13988;52.446;13.280;2022-12-07T06:36:36;2.50;99.90
26262;DHT22;13988;52.446;13.280;2022-12-07T06:39:03;2.50;99.90
26262;DHT22;13988;52.446;13.280;2022-12-07T06:41:29;2.60;99.90
26262;DHT22;13988;52.446;13.280;2022-12-07T06:43:55;2.60;99.90
26262;DHT22;13988;52.446;13.280;2022-12-07T06:46:20;2.60;99.90
26262;DHT22;13988;52.446;13.280;2022-12-07T06:48:46;2.70;99.90
26262;DHT22;13988;52.446;13.280;2022-12-07T06:51:12;2.70;99.90
26262;DHT22;13988;52.446;13.280;2022-12-07T06:53:37;2.70;99.90
26262;DHT22;13988;52.446;13.280;2022-12-07T06:56:04;2.80;99.90
26262;DHT22;13988;52.446;13.280;2022-12-07T06:58:30;2.80;99.90
26262;DHT22;13988;52.446;13.280;2022-12-07T07:00:56;2.90;99.90
26262;DHT22;13988;52.446;13.280;2022-12-07T07:03:21;2.90;99.90
26262;DHT22;13988;52.446;13.280;2022-12-07T07:05:47;2.90;99.90
26262;DHT22;13988;52.446;13.280;2022-12-07T07:08:13;3.00;99.90
26262;DHT22;13988;52.446;13.280;2022-12-07T07:10:39;3.10;99.90
26262;DHT22;13988;52.446;13.280;2022-12-07T07:13:05;3.00;99.90
26262;DHT22;13988;52.446;13.280;2022-12-07T07:15:31;3.00;99.90
26262;DHT22;13988;52.446;13.280;2022-12-07T07:17:58;3.10;99.90
26262;DHT22;13988;52.446;13.280;2022-12-07T07:20:23;3.10;99.90
26262;DHT22;13988;52.446;13.280;2022-12-07T07:22:49;3.10;99.90
26262;DHT22;13988;52.446;13.280;2022-12-07T07:25:15;3.10;99.90
26262;DHT22;13988;52.446;13.280;2022-12-07T07:27:41;3.20;99.90
26262;DHT22;13988;52.446;13.280;2022-12-07T07:30:08;3.20;99.90
26262;DHT22;13988;52.446;13.280;2022-12-07T07:32:34;3.20;99.90
26262;DHT22;13988;52.446;13.280;2022-12-07T07:34:59;3.20;99.90
26262;DHT22;13988;52.446;13.280;2022-12-07T07:37:26;3.20;99.90
26262;DHT22;13988;52.446;13.280;2022-12-07T07:39:51;3.20;99.90
26262;DHT22;13988;52.446;13.280;2022-12-07T07:42:17;3.20;99.90
26262;DHT22;13988;52.446;13.280;2022-12-07T07:44:43;3.20;99.90
26262;DHT22;13988;52.446;13.280;2022-12-07T07:47:09;3.20;99.90
26262;DHT22;13988;52.446;13.280;2022-12-07T07:49:34;3.20;99.90
26262;DHT22;13988;52.446;13.280;2022-12-07T07:52:00;3.20;99.90
26262;DHT22;13988;52.446;13.280;2022-12-07T07:54:26;3.10;99.90
26262;DHT22;13988;52.446;13.280;2022-12-07T07:56:52;3.00;99.90
26262;DHT22;13988;52.446;13.280;2022-12-07T07:59:18;3.00;99.90
26262;DHT22;13988;52.446;13.280;2022-12-07T08:01:43;3.00;99.90
26262;DHT22;13988;52.446;13.280;2022-12-07T08:04:09;3.10;99.90
26262;DHT22;13988;52.446;13.280;2022-12-07T08:06:35;3.10;99.90
26262;DHT22;13988;52.446;13.280;2022-12-07T08:09:01;3.20;99.90
26262;DHT22;13988;52.446;13.280;2022-12-07T08:11:27;3.20;99.90
26262;DHT22;13988;52.446;13.280;2022-12-07T08:13:52;3.20;99.90
26262;DHT22;13988;52.446;13.280;2022-12-07T08:16:18;3.20;99.90
26262;DHT22;13988;52.446;13.280;2022-12-07T08:18:44;3.20;99.90
26262;DHT22;13988;52.446;13.280;2022-12-07T08:21:12;3.20;99.90
26262;DHT22;13988;52.446;13.280;2022-12-07T08:23:38;3.20;99.90
26262;DHT22;13988;52.446;13.280;2022-12-07T08:26:09;3.20;99.90
26262;DHT22;13988;52.446;13.280;2022-12-07T08:28:35;3.20;99.90
26262;DHT22;13988;52.446;13.280;2022-12-07T08:31:02;3.30;99.90
26262;DHT22;13988;52.446;13.280;2022-12-07T08:33:28;3.20;99.90
26262;DHT22;13988;52.446;13.280;2022-12-07T08:35:54;3.30;99.90
26262;DHT22;13988;52.446;13.280;2022-12-07T08:38:20;3.30;99.90
26262;DHT22;13988;52.446;13.280;2022-12-07T08:40:54;3.20;99.90
26262;DHT22;13988;52.446;13.280;2022-12-07T08:43:19;3.30;99.90
26262;DHT22;13988;52.446;13.280;2022-12-07T08:45:46;3.30;99.90
26262;DHT22;13988;52.446;13.280;2022-12-07T08:48:13;3.30;99.90
26262;DHT22;13988;52.446;13.280;2022-12-07T08:50:39;3.30;99.90
26262;DHT22;13988;52.446;13.280;2022-12-07T08:53:06;3.20;99.90
26262;DHT22;13988;52.446;13.280;2022-12-07T08:55:33;3.30;99.90
26262;DHT22;13988;52.446;13.280;2022-12-07T08:57:59;3.30;99.90
26262;DHT22;13988;52.446;13.280;2022-12-07T09:00:26;3.20;99.90
26262;DHT22;13988;52.446;13.280;2022-12-07T09:02:51;3.20;99.90
26262;DHT22;13988;52.446;13.280;2022-12-07T09:05:18;3.20;99.90
26262;DHT22;13988;52.446;13.280;2022-12-07T09:07:46;3.20;99.90
26262;DHT22;13988;52.446;13.280;2022-12-07T09:10:13;3.20;99.90
26262;DHT22;13988;52.446;13.280;2022-12-07T09:12:39;3.10;99.90
26262;DHT22;13988;52.446;13.280;2022-12-07T09:15:05;3.20;99.90
26262;DHT22;13988;52.446;13.280;2022-12-07T09:17:32;3.20;99.90
26262;DHT22;13988;52.446;13.280;2022-12-07T09:19:58;3.20;99.90
26262;DHT22;13988;52.446;13.280;2022-12-07T09:22:29;3.20;99.90
26262;DHT22;13988;52.446;13.280;2022-12-07T09:24:56;3.20;99.90
26262;DHT22;13988;52.446;13.280;2022-12-07T09:27:21;3.20;99.90
26262;DHT22;13988;52.446;13.280;2022-12-07T09:29:47;3.20;99.90
26262;DHT22;13988;52.446;13.280;2022-12-07T09:32:12;3.20;99.90
26262;DHT22;13988;52.446;13.280;2022-12-07T09:34:38;3.20;99.90
26262;DHT22;13988;52.446;13.280;2022-12-07T09:37:04;3.20;99.90
26262;DHT22;13988;52.446;13.280;2022-12-07T09:39:29;3.20;99.90
26262;DHT22;13988;52.446;13.280;2022-12-07T09:41:57;3.30;99.90
26262;DHT22;13988;52.446;13.280;2022-12-07T09:44:25;3.20;99.90
26262;DHT22;13988;52.446;13.280;2022-12-07T09:46:51;3.20;99.90
26262;DHT22;13988;52.446;13.280;2022-12-07T09:49:20;3.30;99.90
26262;DHT22;13988;52.446;13.280;2022-12-07T09:51:47;3.10;99.90
26262;DHT22;13988;52.446;13.280;2022-12-07T09:54:16;3.10;99.90
26262;DHT22;13988;52.446;13.280;2022-12-07T09:56:42;3.20;99.90
26262;DHT22;13988;52.446;13.280;2022-12-07T09:59:26;3.10;99.90
26262;DHT22;13988;52.446;13.280;2022-12-07T10:01:52;3.10;99.90
26262;DHT22;13988;52.446;13.280;2022-12-07T10:04:21;3.10;99.90
26262;DHT22;13988;52.446;13.280;2022-12-07T10:06:48;3.10;99.90
26262;DHT22;13988;52.446;13.280;2022-12-07T10:09:18;3.10;99.90
26262;DHT22;13988;52.446;13.280;2022-12-07T10:12:08;3.10;99.90
26262;DHT22;13988;52.446;13.280;2022-12-07T10:14:40;3.10;99.90
26262;DHT22;13988;52.446;13.280;2022-12-07T10:17:38;3.10;99.90
26262;DHT22;13988;52.446;13.280;2022-12-07T10:20:13;3.00;99.90
26262;DHT22;13988;52.446;13.280;2022-12-07T10:22:38;3.10;99.90
26262;DHT22;13988;52.446;13.280;2022-12-07T10:25:20;3.10;99.90
26262;DHT22;13988;52.446;13.280;2022-12-07T10:28:18;3.10;99.90
26262;DHT22;13988;52.446;13.280;2022-12-07T10:31:01;3.10;99.90
26262;DHT22;13988;52.446;13.280;2022-12-07T10:36:00;3.20;99.90
26262;DHT22;13988;52.446;13.280;2022-12-07T10:38:27;3.30;99.90
26262;DHT22;13988;52.446;13.280;2022-12-07T10:41:19;3.30;99.90
26262;DHT22;13988;52.446;13.280;2022-12-07T10:43:54;3.30;99.90
26262;DHT22;13988;52.446;13.280;2022-12-07T11:13:37;3.50;99.90
26262;DHT22;13988;52.446;13.280;2022-12-07T11:17:12;3.70;99.90
26262;DHT22;13988;52.446;13.280;2022-12-07T11:35:35;3.60;99.90
26262;DHT22;13988;52.446;13.280;2022-12-07T11:38:17;3.60;99.90
26262;DHT22;13988;52.446;13.280;2022-12-07T11:40:51;3.60;99.90
26262;DHT22;13988;52.446;13.280;2022-12-07T11:43:28;3.70;99.90
26262;DHT22;13988;52.446;13.280;2022-12-07T11:46:08;3.70;99.90
26262;DHT22;13988;52.446;13.280;2022-12-07T11:48:40;3.70;99.90
26262;DHT22;13988;52.446;13.280;2022-12-07T11:51:10;3.80;99.90
26262;DHT22;13988;52.446;13.280;2022-12-07T11:53:49;3.80;99.90
26262;DHT22;13988;52.446;13.280;2022-12-07T11:56:21;3.80;99.90
26262;DHT22;13988;52.446;13.280;2022-12-07T12:03:46;3.90;99.90
26262;DHT22;13988;52.446;13.280;2022-12-07T12:06:12;3.90;99.90
26262;DHT22;13988;52.446;13.280;2022-12-07T12:20:01;3.90;99.90
26262;DHT22;13988;52.446;13.280;2022-12-07T12:25:04;3.90;99.90
26262;DHT22;13988;52.446;13.280;2022-12-07T12:27:34;3.90;99.90
26262;DHT22;13988;52.446;13.280;2022-12-07T12:30:06;3.90;99.90
26262;DHT22;13988;52.446;13.280;2022-12-07T12:32:48;4.00;99.90
26262;DHT22;13988;52.446;13.280;2022-12-07T12:37:54;4.10;99.90
26262;DHT22;13988;52.446;13.280;2022-12-07T12:42:53;4.10;99.90
26262;DHT22;13988;52.446;13.280;2022-12-07T12:45:29;4.10;99.90
26262;DHT22;13988;52.446;13.280;2022-12-07T12:48:04;4.20;99.90
26262;DHT22;13988;52.446;13.280;2022-12-07T12:50:37;4.20;99.90
26262;DHT22;13988;52.446;13.280;2022-12-07T12:58:38;4.20;99.90
26262;DHT22;13988;52.446;13.280;2022-12-07T13:01:40;4.20;99.90
26262;DHT22;13988;52.446;13.280;2022-12-07T13:04:18;4.30;99.90
26262;DHT22;13988;52.446;13.280;2022-12-07T13:06:47;4.30;99.90
26262;DHT22;13988;52.446;13.280;2022-12-07T13:09:21;4.30;99.90
26262;DHT22;13988;52.446;13.280;2022-12-07T13:11:48;4.30;99.90
26262;DHT22;13988;52.446;13.280;2022-12-07T13:17:03;4.40;99.90
26262;DHT22;13988;52.446;13.280;2022-12-07T13:25:07;4.30;99.90
26262;DHT22;13988;52.446;13.280;2022-12-07T13:27:37;4.30;99.90
26262;DHT22;13988;52.446;13.280;2022-12-07T13:30:17;4.20;99.90
26262;DHT22;13988;52.446;13.280;2022-12-07T13:32:43;4.30;99.90
26262;DHT22;13988;52.446;13.280;2022-12-07T13:35:36;4.20;99.90
26262;DHT22;13988;52.446;13.280;2022-12-07T13:38:13;4.20;99.90
26262;DHT22;13988;52.446;13.280;2022-12-07T13:40:40;4.20;99.90
26262;DHT22;13988;52.446;13.280;2022-12-07T13:43:14;4.20;99.90
26262;DHT22;13988;52.446;13.280;2022-12-07T13:45:41;4.20;99.90
26262;DHT22;13988;52.446;13.280;2022-12-07T13:48:30;4.00;99.90
26262;DHT22;13988;52.446;13.280;2022-12-07T13:50:58;4.00;99.90
26262;DHT22;13988;52.446;13.280;2022-12-07T13:53:24;4.00;99.90
26262;DHT22;13988;52.446;13.280;2022-12-07T13:55:53;4.00;99.90
26262;DHT22;13988;52.446;13.280;2022-12-07T13:58:19;4.00;99.90
26262;DHT22;13988;52.446;13.280;2022-12-07T14:00:45;4.10;99.90
26262;DHT22;13988;52.446;13.280;2022-12-07T14:05:41;4.10;99.90
26262;DHT22;13988;52.446;13.280;2022-12-07T14:10:39;4.10;99.90
26262;DHT22;13988;52.446;13.280;2022-12-07T14:13:55;4.00;99.90
26262;DHT22;13988;52.446;13.280;2022-12-07T14:16:28;4.00;99.90
26262;DHT22;13988;52.446;13.280;2022-12-07T14:18:56;4.00;99.90
26262;DHT22;13988;52.446;13.280;2022-12-07T14:21:32;4.10;99.90
26262;DHT22;13988;52.446;13.280;2022-12-07T14:24:17;4.00;99.90
26262;DHT22;13988;52.446;13.280;2022-12-07T14:26:44;4.00;99.90
26262;DHT22;13988;52.446;13.280;2022-12-07T14:31:54;4.00;99.90
26262;DHT22;13988;52.446;13.280;2022-12-07T14:34:23;4.10;99.90
26262;DHT22;13988;52.446;13.280;2022-12-07T14:36:50;4.00;99.90
26262;DHT22;13988;52.446;13.280;2022-12-07T14:39:15;4.00;99.90
26262;DHT22;13988;52.446;13.280;2022-12-07T14:41:41;3.90;99.90
26262;DHT22;13988;52.446;13.280;2022-12-07T14:44:16;3.80;99.90
26262;DHT22;13988;52.446;13.280;2022-12-07T14:46:41;3.70;99.90
26262;DHT22;13988;52.446;13.280;2022-12-07T14:49:07;3.60;99.90
26262;DHT22;13988;52.446;13.280;2022-12-07T14:51:33;3.60;99.90
26262;DHT22;13988;52.446;13.280;2022-12-07T14:54:01;3.60;99.90
26262;DHT22;13988;52.446;13.280;2022-12-07T14:56:26;3.60;99.90
26262;DHT22;13988;52.446;13.280;2022-12-07T14:58:53;3.50;99.90
26262;DHT22;13988;52.446;13.280;2022-12-07T15:01:19;3.50;99.90
26262;DHT22;13988;52.446;13.280;2022-12-07T15:03:44;3.40;99.90
26262;DHT22;13988;52.446;13.280;2022-12-07T15:06:15;3.40;99.90
26262;DHT22;13988;52.446;13.280;2022-12-07T15:08:41;3.40;99.90
26262;DHT22;13988;52.446;13.280;2022-12-07T15:11:09;3.30;99.90
26262;DHT22;13988;52.446;13.280;2022-12-07T15:13:35;3.30;99.90
26262;DHT22;13988;52.446;13.280;2022-12-07T15:16:20;3.30;99.90
26262;DHT22;13988;52.446;13.280;2022-12-07T15:18:46;3.30;99.90
26262;DHT22;13988;52.446;13.280;2022-12-07T15:21:15;3.30;99.90
26262;DHT22;13988;52.446;13.280;2022-12-07T15:23:41;3.30;99.90
26262;DHT22;13988;52.446;13.280;2022-12-07T15:26:07;3.20;99.90
26262;DHT22;13988;52.446;13.280;2022-12-07T15:28:33;3.20;99.90
26262;DHT22;13988;52.446;13.280;2022-12-07T15:30:59;3.20;99.90
26262;DHT22;13988;52.446;13.280;2022-12-07T15:33:25;3.20;99.90
26262;DHT22;13988;52.446;13.280;2022-12-07T15:35:50;3.30;99.90
26262;DHT22;13988;52.446;13.280;2022-12-07T15:38:16;3.40;99.90
26262;DHT22;13988;52.446;13.280;2022-12-07T15:40:41;3.40;99.90
26262;DHT22;13988;52.446;13.280;2022-12-07T15:43:09;3.40;99.90
26262;DHT22;13988;52.446;13.280;2022-12-07T15:45:55;3.40;99.90
26262;DHT22;13988;52.446;13.280;2022-12-07T15:48:20;3.40;99.90
26262;DHT22;13988;52.446;13.280;2022-12-07T15:50:46;3.40;99.90
26262;DHT22;13988;52.446;13.280;2022-12-07T15:53:11;3.30;99.90
26262;DHT22;13988;52.446;13.280;2022-12-07T15:55:40;3.20;99.90
26262;DHT22;13988;52.446;13.280;2022-12-07T15:58:06;3.10;99.90
26262;DHT22;13988;52.446;13.280;2022-12-07T16:00:32;3.10;99.90
26262;DHT22;13988;52.446;13.280;2022-12-07T16:02:58;2.90;99.90
26262;DHT22;13988;52.446;13.280;2022-12-07T16:05:23;2.90;99.90
26262;DHT22;13988;52.446;13.280;2022-12-07T16:07:49;2.90;99.90
26262;DHT22;13988;52.446;13.280;2022-12-07T16:10:15;3.00;99.90
26262;DHT22;13988;52.446;13.280;2022-12-07T16:12:40;2.80;99.90
26262;DHT22;13988;52.446;13.280;2022-12-07T16:15:06;2.80;99.90
26262;DHT22;13988;52.446;13.280;2022-12-07T16:17:32;2.80;99.90
26262;DHT22;13988;52.446;13.280;2022-12-07T16:19:58;2.80;99.90
26262;DHT22;13988;52.446;13.280;2022-12-07T16:22:23;2.80;99.90
26262;DHT22;13988;52.446;13.280;2022-12-07T16:24:49;2.80;99.90
26262;DHT22;13988;52.446;13.280;2022-12-07T16:27:16;2.80;99.90
26262;DHT22;13988;52.446;13.280;2022-12-07T16:29:42;2.70;99.90
26262;DHT22;13988;52.446;13.280;2022-12-07T16:32:07;2.70;99.90
26262;DHT22;13988;52.446;13.280;2022-12-07T16:34:33;2.80;99.90
26262;DHT22;13988;52.446;13.280;2022-12-07T16:36:59;2.80;99.90
26262;DHT22;13988;52.446;13.280;2022-12-07T16:39:24;2.70;99.90
26262;DHT22;13988;52.446;13.280;2022-12-07T16:41:50;2.70;99.90
26262;DHT22;13988;52.446;13.280;2022-12-07T16:44:18;2.70;99.90
26262;DHT22;13988;52.446;13.280;2022-12-07T16:46:43;2.60;99.90
26262;DHT22;13988;52.446;13.280;2022-12-07T16:49:12;2.60;99.90
26262;DHT22;13988;52.446;13.280;2022-12-07T16:51:38;2.60;99.90
26262;DHT22;13988;52.446;13.280;2022-12-07T16:54:04;2.60;99.90
26262;DHT22;13988;52.446;13.280;2022-12-07T16:56:30;2.60;99.90
26262;DHT22;13988;52.446;13.280;2022-12-07T16:58:58;2.50;99.90
26262;DHT22;13988;52.446;13.280;2022-12-07T17:01:24;2.50;99.90
26262;DHT22;13988;52.446;13.280;2022-12-07T17:03:50;2.40;99.90
26262;DHT22;13988;52.446;13.280;2022-12-07T17:06:24;2.30;99.90
26262;DHT22;13988;52.446;13.280;2022-12-07T17:08:51;2.40;99.90
26262;DHT22;13988;52.446;13.280;2022-12-07T17:11:19;2.30;99.90
26262;DHT22;13988;52.446;13.280;2022-12-07T17:13:45;2.50;99.90
26262;DHT22;13988;52.446;13.280;2022-12-07T17:16:30;2.50;99.90
26262;DHT22;13988;52.446;13.280;2022-12-07T17:18:56;2.50;99.90
26262;DHT22;13988;52.446;13.280;2022-12-07T17:21:22;2.40;99.90
26262;DHT22;13988;52.446;13.280;2022-12-07T17:23:48;2.40;99.90
26262;DHT22;13988;52.446;13.280;2022-12-07T17:26:23;2.30;99.90
26262;DHT22;13988;52.446;13.280;2022-12-07T17:28:49;2.30;99.90
26262;DHT22;13988;52.446;13.280;2022-12-07T17:31:17;2.30;99.90
26262;DHT22;13988;52.446;13.280;2022-12-07T17:33:43;2.30;99.90
26262;DHT22;13988;52.446;13.280;2022-12-07T17:36:13;2.30;99.90
26262;DHT22;13988;52.446;13.280;2022-12-07T17:38:39;2.20;99.90
26262;DHT22;13988;52.446;13.280;2022-12-07T17:41:16;2.20;99.90
26262;DHT22;13988;52.446;13.280;2022-12-07T17:44:04;2.30;99.90
26262;DHT22;13988;52.446;13.280;2022-12-07T17:46:30;2.20;99.90
26262;DHT22;13988;52.446;13.280;2022-12-07T17:48:57;2.10;99.90
26262;DHT22;13988;52.446;13.280;2022-12-07T17:51:23;2.10;99.90
26262;DHT22;13988;52.446;13.280;2022-12-07T17:54:08;2.00;99.90